Archival Weather

Chicago O'Hare International

Chicago, Illinois (KORD)

Report from: Wednesday, September 6, 2023 12:33 PM CDT
Current time: Wednesday, May 29, 2024 6:20 PM CDT

Current weather – Weather history – Daily summaries
Weather forecast

Temperature26.7°C (80.1°F)
Heat index27.8°C (82.1°F)
Dew point17.8°C (64.0°F)
Winds 13 kts (6.7 m/s, 15 mph) Southwest (230°)
Wind gusts 22 kts (11.3 m/s, 25.3 mph)
Visibility10 mi. (16.1 km)
Clouds Scattered clouds 2,800 ft. (853 m)
Altimeter29.77 in.Hg (1008 mB)
Relative humidity58 %
Density altitude1,801 ft. (549 m)
Remarks Automated weather observing station with precipitation discriminator
Flight conditions Visual Meteorological Conditions
Raw dataKORD 061733Z 23013G22KT 10SM SCT028 27/18 A2977 RMK AO2 T02670178
An error has occurred. This application may no longer respond until reloaded. Reload 🗙